sensor_id;sensor_type;location;lat;lon;timestamp;pressure;altitude;pressure_sealevel;temperature;humidity
9139;BME280;4604;48.616;9.548;2023-12-28T00:00:38;96999.78;;;6.42;54.60
9139;BME280;4604;48.616;9.548;2023-12-28T00:03:06;97013.78;;;6.54;51.28
9139;BME280;4604;48.616;9.548;2023-12-28T00:05:32;97024.09;;;6.69;50.65
9139;BME280;4604;48.616;9.548;2023-12-28T00:07:59;97014.72;;;6.77;50.27
9139;BME280;4604;48.616;9.548;2023-12-28T00:10:27;97031.28;;;6.78;51.05
9139;BME280;4604;48.616;9.548;2023-12-28T00:12:54;97011.31;;;6.88;50.46
9139;BME280;4604;48.616;9.548;2023-12-28T00:15:21;97016.94;;;7.06;50.31
9139;BME280;4604;48.616;9.548;2023-12-28T00:17:48;97018.44;;;7.33;49.18
9139;BME280;4604;48.616;9.548;2023-12-28T00:20:16;97020.94;;;7.23;49.09
9139;BME280;4604;48.616;9.548;2023-12-28T00:22:42;97009.31;;;7.14;49.47
9139;BME280;4604;48.616;9.548;2023-12-28T00:25:09;97006.00;;;7.12;50.38
9139;BME280;4604;48.616;9.548;2023-12-28T00:27:35;97003.50;;;7.11;50.34
9139;BME280;4604;48.616;9.548;2023-12-28T00:30:04;97003.75;;;7.19;48.65
9139;BME280;4604;48.616;9.548;2023-12-28T00:32:30;96996.97;;;7.27;47.73
9139;BME280;4604;48.616;9.548;2023-12-28T00:34:57;97018.00;;;7.61;45.04
9139;BME280;4604;48.616;9.548;2023-12-28T00:37:27;97009.28;;;7.94;43.63
9139;BME280;4604;48.616;9.548;2023-12-28T00:39:54;97026.22;;;8.24;42.59
9139;BME280;4604;48.616;9.548;2023-12-28T00:42:21;97014.94;;;8.33;42.59
9139;BME280;4604;48.616;9.548;2023-12-28T00:44:48;97013.88;;;8.36;42.84
9139;BME280;4604;48.616;9.548;2023-12-28T00:47:14;97019.03;;;8.49;41.86
9139;BME280;4604;48.616;9.548;2023-12-28T00:49:41;97006.44;;;8.52;42.25
9139;BME280;4604;48.616;9.548;2023-12-28T00:52:07;97010.38;;;8.58;41.53
9139;BME280;4604;48.616;9.548;2023-12-28T00:54:36;97015.50;;;8.71;41.33
9139;BME280;4604;48.616;9.548;2023-12-28T00:57:03;97000.34;;;8.84;40.41
9139;BME280;4604;48.616;9.548;2023-12-28T00:59:33;97000.22;;;8.86;39.92
9139;BME280;4604;48.616;9.548;2023-12-28T01:01:59;97005.50;;;9.28;38.63
9139;BME280;4604;48.616;9.548;2023-12-28T01:04:26;97015.06;;;9.50;38.66
9139;BME280;4604;48.616;9.548;2023-12-28T01:06:53;97001.13;;;9.59;38.31
9139;BME280;4604;48.616;9.548;2023-12-28T01:09:19;97015.00;;;9.61;38.44
9139;BME280;4604;48.616;9.548;2023-12-28T01:11:47;97023.91;;;9.70;37.95
9139;BME280;4604;48.616;9.548;2023-12-28T01:14:14;97014.22;;;10.11;36.42
9139;BME280;4604;48.616;9.548;2023-12-28T01:16:40;97016.88;;;10.20;36.69
9139;BME280;4604;48.616;9.548;2023-12-28T01:19:09;97009.38;;;10.16;36.87
9139;BME280;4604;48.616;9.548;2023-12-28T01:21:35;97021.00;;;10.03;37.76
9139;BME280;4604;48.616;9.548;2023-12-28T01:24:02;97016.47;;;10.15;37.05
9139;BME280;4604;48.616;9.548;2023-12-28T01:26:29;97017.56;;;10.13;37.20
9139;BME280;4604;48.616;9.548;2023-12-28T01:28:57;97017.34;;;9.95;37.49
9139;BME280;4604;48.616;9.548;2023-12-28T01:31:23;97021.16;;;10.12;37.33
9139;BME280;4604;48.616;9.548;2023-12-28T01:33:50;97014.78;;;10.64;35.59
9139;BME280;4604;48.616;9.548;2023-12-28T01:36:17;97031.31;;;10.76;36.20
9139;BME280;4604;48.616;9.548;2023-12-28T01:38:44;97025.47;;;10.73;35.69
9139;BME280;4604;48.616;9.548;2023-12-28T01:41:10;97023.41;;;10.66;36.20
9139;BME280;4604;48.616;9.548;2023-12-28T01:43:37;97028.09;;;10.53;36.75
9139;BME280;4604;48.616;9.548;2023-12-28T01:46:06;97030.44;;;10.37;36.66
9139;BME280;4604;48.616;9.548;2023-12-28T01:48:33;97014.31;;;10.30;37.22
9139;BME280;4604;48.616;9.548;2023-12-28T01:50:59;97043.38;;;10.19;37.96
9139;BME280;4604;48.616;9.548;2023-12-28T01:53:26;97005.06;;;10.15;37.52
9139;BME280;4604;48.616;9.548;2023-12-28T01:55:53;97017.28;;;10.16;37.59
9139;BME280;4604;48.616;9.548;2023-12-28T01:58:20;97023.81;;;10.21;36.75
9139;BME280;4604;48.616;9.548;2023-12-28T02:00:47;97024.38;;;10.15;37.23
9139;BME280;4604;48.616;9.548;2023-12-28T02:03:15;97038.97;;;10.19;37.36
9139;BME280;4604;48.616;9.548;2023-12-28T02:05:42;97049.03;;;10.04;38.42
9139;BME280;4604;48.616;9.548;2023-12-28T02:08:08;97035.59;;;9.77;38.93
9139;BME280;4604;48.616;9.548;2023-12-28T02:10:35;97057.25;;;9.80;39.14
9139;BME280;4604;48.616;9.548;2023-12-28T02:13:02;97044.25;;;9.89;37.76
9139;BME280;4604;48.616;9.548;2023-12-28T02:15:28;97065.41;;;9.77;38.69
9139;BME280;4604;48.616;9.548;2023-12-28T02:17:59;97049.59;;;9.77;38.20
9139;BME280;4604;48.616;9.548;2023-12-28T02:20:29;97041.03;;;9.54;38.84
9139;BME280;4604;48.616;9.548;2023-12-28T02:22:56;97058.88;;;9.51;39.36
9139;BME280;4604;48.616;9.548;2023-12-28T02:25:24;97059.84;;;9.50;39.00
9139;BME280;4604;48.616;9.548;2023-12-28T02:27:51;97065.25;;;9.48;39.48
9139;BME280;4604;48.616;9.548;2023-12-28T02:30:21;97073.16;;;9.27;39.77
9139;BME280;4604;48.616;9.548;2023-12-28T02:32:54;97081.81;;;9.18;40.31
9139;BME280;4604;48.616;9.548;2023-12-28T02:35:24;97084.09;;;9.11;40.50
9139;BME280;4604;48.616;9.548;2023-12-28T02:37:55;97077.25;;;9.20;39.74
9139;BME280;4604;48.616;9.548;2023-12-28T02:40:25;97076.34;;;9.10;40.20
9139;BME280;4604;48.616;9.548;2023-12-28T02:42:52;97066.81;;;8.97;40.52
9139;BME280;4604;48.616;9.548;2023-12-28T02:45:19;97056.44;;;8.85;40.56
9139;BME280;4604;48.616;9.548;2023-12-28T02:47:46;97059.47;;;9.12;39.72
9139;BME280;4604;48.616;9.548;2023-12-28T02:50:13;97063.94;;;9.21;39.74
9139;BME280;4604;48.616;9.548;2023-12-28T02:52:39;97066.50;;;9.12;40.01
9139;BME280;4604;48.616;9.548;2023-12-28T02:55:06;97082.72;;;9.28;39.67
9139;BME280;4604;48.616;9.548;2023-12-28T02:57:34;97083.59;;;9.38;39.85
9139;BME280;4604;48.616;9.548;2023-12-28T03:00:05;97062.84;;;9.24;39.66
9139;BME280;4604;48.616;9.548;2023-12-28T03:02:34;97079.38;;;9.26;39.78
9139;BME280;4604;48.616;9.548;2023-12-28T03:05:00;97081.34;;;9.34;39.32
9139;BME280;4604;48.616;9.548;2023-12-28T03:07:27;97086.63;;;9.13;40.14
9139;BME280;4604;48.616;9.548;2023-12-28T03:09:53;97061.38;;;9.10;40.65
9139;BME280;4604;48.616;9.548;2023-12-28T03:12:20;97056.81;;;9.12;39.78
9139;BME280;4604;48.616;9.548;2023-12-28T03:14:48;97050.47;;;9.36;39.39
9139;BME280;4604;48.616;9.548;2023-12-28T03:17:15;97056.19;;;9.62;38.86
9139;BME280;4604;48.616;9.548;2023-12-28T03:19:42;97051.47;;;9.65;38.40
9139;BME280;4604;48.616;9.548;2023-12-28T03:22:08;97054.97;;;9.66;38.99
9139;BME280;4604;48.616;9.548;2023-12-28T03:24:36;97048.44;;;9.70;39.13
9139;BME280;4604;48.616;9.548;2023-12-28T03:27:03;97052.47;;;9.95;37.98
9139;BME280;4604;48.616;9.548;2023-12-28T03:29:30;97054.22;;;10.16;37.98
9139;BME280;4604;48.616;9.548;2023-12-28T03:31:58;97045.16;;;10.08;37.60
9139;BME280;4604;48.616;9.548;2023-12-28T03:34:25;97039.34;;;10.05;38.19
9139;BME280;4604;48.616;9.548;2023-12-28T03:36:54;97051.50;;;9.96;38.35
9139;BME280;4604;48.616;9.548;2023-12-28T03:39:22;97039.09;;;9.87;38.48
9139;BME280;4604;48.616;9.548;2023-12-28T03:41:49;97040.59;;;9.80;38.59
9139;BME280;4604;48.616;9.548;2023-12-28T03:44:15;97055.28;;;10.03;37.92
9139;BME280;4604;48.616;9.548;2023-12-28T03:46:42;97044.88;;;10.12;37.98
9139;BME280;4604;48.616;9.548;2023-12-28T03:49:10;97064.72;;;10.06;38.07
9139;BME280;4604;48.616;9.548;2023-12-28T03:51:37;97057.81;;;10.15;37.71
9139;BME280;4604;48.616;9.548;2023-12-28T03:54:03;97072.00;;;10.23;37.76
9139;BME280;4604;48.616;9.548;2023-12-28T03:56:30;97062.94;;;10.16;37.61
9139;BME280;4604;48.616;9.548;2023-12-28T03:58:58;97061.41;;;10.14;37.67
9139;BME280;4604;48.616;9.548;2023-12-28T04:01:24;97056.50;;;9.99;38.13
9139;BME280;4604;48.616;9.548;2023-12-28T04:03:51;97040.59;;;9.80;38.47
9139;BME280;4604;48.616;9.548;2023-12-28T04:06:19;97060.78;;;9.91;38.30
9139;BME280;4604;48.616;9.548;2023-12-28T04:08:45;97054.44;;;10.03;38.14
9139;BME280;4604;48.616;9.548;2023-12-28T04:11:12;97061.84;;;10.19;37.74
9139;BME280;4604;48.616;9.548;2023-12-28T04:13:39;97055.88;;;10.17;37.84
9139;BME280;4604;48.616;9.548;2023-12-28T04:16:05;97070.03;;;10.16;37.95
9139;BME280;4604;48.616;9.548;2023-12-28T04:18:32;97067.03;;;9.99;38.32
9139;BME280;4604;48.616;9.548;2023-12-28T04:20:59;97058.97;;;9.91;38.26
9139;BME280;4604;48.616;9.548;2023-12-28T04:23:27;97054.47;;;9.82;38.99
9139;BME280;4604;48.616;9.548;2023-12-28T04:25:53;97040.84;;;9.77;38.73
9139;BME280;4604;48.616;9.548;2023-12-28T04:28:20;97043.88;;;9.72;38.99
9139;BME280;4604;48.616;9.548;2023-12-28T04:30:46;97039.97;;;9.67;39.17
9139;BME280;4604;48.616;9.548;2023-12-28T04:33:13;97038.28;;;9.65;39.45
9139;BME280;4604;48.616;9.548;2023-12-28T04:35:43;97038.84;;;9.59;39.89
9139;BME280;4604;48.616;9.548;2023-12-28T04:38:09;97043.13;;;9.60;39.73
9139;BME280;4604;48.616;9.548;2023-12-28T04:40:37;97042.88;;;9.63;40.21
9139;BME280;4604;48.616;9.548;2023-12-28T04:43:04;97047.28;;;9.63;40.14
9139;BME280;4604;48.616;9.548;2023-12-28T04:45:30;97037.94;;;9.80;40.74
9139;BME280;4604;48.616;9.548;2023-12-28T04:47:57;97035.50;;;9.88;41.16
9139;BME280;4604;48.616;9.548;2023-12-28T04:50:23;97030.09;;;9.90;40.94
9139;BME280;4604;48.616;9.548;2023-12-28T04:52:50;97033.78;;;10.08;40.92
9139;BME280;4604;48.616;9.548;2023-12-28T04:55:16;97030.84;;;10.01;42.11
9139;BME280;4604;48.616;9.548;2023-12-28T04:57:44;97038.34;;;10.06;42.27
9139;BME280;4604;48.616;9.548;2023-12-28T05:00:11;97047.31;;;10.24;42.16
9139;BME280;4604;48.616;9.548;2023-12-28T05:02:38;97031.56;;;10.44;42.11
9139;BME280;4604;48.616;9.548;2023-12-28T05:05:05;97032.69;;;10.51;41.93
9139;BME280;4604;48.616;9.548;2023-12-28T05:07:34;97032.00;;;10.59;42.21
9139;BME280;4604;48.616;9.548;2023-12-28T05:10:00;97029.22;;;10.60;42.12
9139;BME280;4604;48.616;9.548;2023-12-28T05:12:27;97032.44;;;10.83;42.17
9139;BME280;4604;48.616;9.548;2023-12-28T05:14:55;97017.56;;;10.92;42.65
9139;BME280;4604;48.616;9.548;2023-12-28T05:17:22;97027.97;;;11.23;42.54
9139;BME280;4604;48.616;9.548;2023-12-28T05:19:48;97019.06;;;11.24;42.67
9139;BME280;4604;48.616;9.548;2023-12-28T05:22:15;97009.78;;;11.20;43.53
9139;BME280;4604;48.616;9.548;2023-12-28T05:24:41;96993.22;;;11.27;43.75
9139;BME280;4604;48.616;9.548;2023-12-28T05:27:08;97006.38;;;11.47;44.28
9139;BME280;4604;48.616;9.548;2023-12-28T05:29:35;97019.72;;;11.55;44.75
9139;BME280;4604;48.616;9.548;2023-12-28T05:32:03;97025.00;;;11.55;44.81
9139;BME280;4604;48.616;9.548;2023-12-28T05:34:29;97020.44;;;11.47;45.68
9139;BME280;4604;48.616;9.548;2023-12-28T05:36:56;97013.22;;;11.40;45.73
9139;BME280;4604;48.616;9.548;2023-12-28T05:39:22;97033.19;;;11.62;46.09
9139;BME280;4604;48.616;9.548;2023-12-28T05:41:49;97042.53;;;11.56;45.66
9139;BME280;4604;48.616;9.548;2023-12-28T05:44:16;97040.00;;;11.64;46.10
9139;BME280;4604;48.616;9.548;2023-12-28T05:46:43;97050.13;;;11.78;45.35
9139;BME280;4604;48.616;9.548;2023-12-28T05:49:11;97046.41;;;11.62;45.40
9139;BME280;4604;48.616;9.548;2023-12-28T05:51:38;97047.28;;;11.43;46.02
9139;BME280;4604;48.616;9.548;2023-12-28T05:54:06;97050.19;;;11.49;45.46
9139;BME280;4604;48.616;9.548;2023-12-28T05:56:33;97063.84;;;11.45;46.06
9139;BME280;4604;48.616;9.548;2023-12-28T05:58:59;97060.59;;;11.51;45.32
9139;BME280;4604;48.616;9.548;2023-12-28T06:01:26;97068.09;;;11.65;44.54
9139;BME280;4604;48.616;9.548;2023-12-28T06:03:53;97077.72;;;11.66;43.06
9139;BME280;4604;48.616;9.548;2023-12-28T06:06:21;97076.47;;;11.51;42.65
9139;BME280;4604;48.616;9.548;2023-12-28T06:08:48;97041.88;;;11.25;42.02
9139;BME280;4604;48.616;9.548;2023-12-28T06:11:14;97066.09;;;11.20;41.90
9139;BME280;4604;48.616;9.548;2023-12-28T06:13:41;97049.81;;;11.05;42.72
9139;BME280;4604;48.616;9.548;2023-12-28T06:16:09;97063.03;;;11.05;43.17
9139;BME280;4604;48.616;9.548;2023-12-28T06:18:35;97062.31;;;10.93;43.31
9139;BME280;4604;48.616;9.548;2023-12-28T06:21:02;97049.81;;;10.96;44.92
9139;BME280;4604;48.616;9.548;2023-12-28T06:23:32;97051.75;;;11.03;45.89
9139;BME280;4604;48.616;9.548;2023-12-28T06:26:04;97042.31;;;11.20;46.59
9139;BME280;4604;48.616;9.548;2023-12-28T06:28:31;97079.56;;;11.46;46.84
9139;BME280;4604;48.616;9.548;2023-12-28T06:30:57;97068.69;;;11.49;47.23
9139;BME280;4604;48.616;9.548;2023-12-28T06:33:26;97034.38;;;11.30;47.25
9139;BME280;4604;48.616;9.548;2023-12-28T06:35:53;97052.88;;;11.30;47.45
9139;BME280;4604;48.616;9.548;2023-12-28T06:38:19;97046.47;;;11.32;47.21
9139;BME280;4604;48.616;9.548;2023-12-28T06:40:47;97065.94;;;11.41;47.43
9139;BME280;4604;48.616;9.548;2023-12-28T06:43:14;97083.44;;;11.52;48.36
9139;BME280;4604;48.616;9.548;2023-12-28T06:45:41;97047.28;;;11.33;47.48
9139;BME280;4604;48.616;9.548;2023-12-28T06:48:07;97060.50;;;11.43;45.68
9139;BME280;4604;48.616;9.548;2023-12-28T06:50:34;97092.63;;;11.28;47.15
9139;BME280;4604;48.616;9.548;2023-12-28T06:53:00;97085.25;;;11.42;46.99
9139;BME280;4604;48.616;9.548;2023-12-28T06:55:27;97088.75;;;11.32;47.29
9139;BME280;4604;48.616;9.548;2023-12-28T06:57:55;97083.47;;;11.32;45.71
9139;BME280;4604;48.616;9.548;2023-12-28T07:00:21;97086.09;;;11.03;45.56
9139;BME280;4604;48.616;9.548;2023-12-28T07:02:48;97088.63;;;11.05;44.96
9139;BME280;4604;48.616;9.548;2023-12-28T07:05:14;97091.91;;;10.97;44.96
9139;BME280;4604;48.616;9.548;2023-12-28T07:07:41;97098.72;;;10.70;45.66
9139;BME280;4604;48.616;9.548;2023-12-28T07:10:08;97098.22;;;10.56;46.14
9139;BME280;4604;48.616;9.548;2023-12-28T07:12:34;97091.84;;;10.48;46.56
9139;BME280;4604;48.616;9.548;2023-12-28T07:15:03;97098.16;;;10.36;46.79
9139;BME280;4604;48.616;9.548;2023-12-28T07:17:30;97096.91;;;10.31;46.63
9139;BME280;4604;48.616;9.548;2023-12-28T07:19:56;97114.84;;;10.37;46.21
9139;BME280;4604;48.616;9.548;2023-12-28T07:22:23;97111.03;;;10.60;46.20
9139;BME280;4604;48.616;9.548;2023-12-28T07:24:49;97097.38;;;10.45;45.03
9139;BME280;4604;48.616;9.548;2023-12-28T07:27:16;97103.03;;;10.41;45.47
9139;BME280;4604;48.616;9.548;2023-12-28T07:29:43;97096.91;;;10.31;46.51
9139;BME280;4604;48.616;9.548;2023-12-28T07:32:10;97107.69;;;10.27;47.55
9139;BME280;4604;48.616;9.548;2023-12-28T07:34:37;97105.06;;;10.27;47.29
9139;BME280;4604;48.616;9.548;2023-12-28T07:37:03;97107.94;;;10.15;47.65
9139;BME280;4604;48.616;9.548;2023-12-28T07:39:30;97107.66;;;10.18;47.08
9139;BME280;4604;48.616;9.548;2023-12-28T07:41:57;97106.22;;;10.35;46.77
9139;BME280;4604;48.616;9.548;2023-12-28T07:44:23;97102.78;;;10.13;47.56
9139;BME280;4604;48.616;9.548;2023-12-28T07:46:50;97116.94;;;10.12;48.29
9139;BME280;4604;48.616;9.548;2023-12-28T07:49:18;97112.78;;;10.10;48.75
9139;BME280;4604;48.616;9.548;2023-12-28T07:51:44;97111.47;;;10.04;49.37
9139;BME280;4604;48.616;9.548;2023-12-28T07:54:11;97107.03;;;10.04;50.67
9139;BME280;4604;48.616;9.548;2023-12-28T07:56:38;97118.66;;;10.02;50.60
9139;BME280;4604;48.616;9.548;2023-12-28T07:59:05;97115.75;;;9.95;50.87
9139;BME280;4604;48.616;9.548;2023-12-28T08:01:34;97125.47;;;10.04;50.69
9139;BME280;4604;48.616;9.548;2023-12-28T08:04:01;97129.19;;;10.23;49.70
9139;BME280;4604;48.616;9.548;2023-12-28T08:06:29;97112.25;;;10.46;47.47
9139;BME280;4604;48.616;9.548;2023-12-28T08:08:57;97119.00;;;10.30;48.49
9139;BME280;4604;48.616;9.548;2023-12-28T08:11:26;97122.38;;;10.41;48.98
9139;BME280;4604;48.616;9.548;2023-12-28T08:13:52;97125.69;;;10.43;48.86
9139;BME280;4604;48.616;9.548;2023-12-28T08:16:19;97116.19;;;10.31;48.48
9139;BME280;4604;48.616;9.548;2023-12-28T08:18:46;97131.44;;;10.27;48.63
9139;BME280;4604;48.616;9.548;2023-12-28T08:21:13;97127.28;;;10.25;49.11
9139;BME280;4604;48.616;9.548;2023-12-28T08:23:41;97139.94;;;10.31;48.19
9139;BME280;4604;48.616;9.548;2023-12-28T08:26:07;97133.22;;;10.17;48.72
9139;BME280;4604;48.616;9.548;2023-12-28T08:28:35;97130.94;;;10.34;47.46
9139;BME280;4604;48.616;9.548;2023-12-28T08:31:02;97139.75;;;10.23;47.99
9139;BME280;4604;48.616;9.548;2023-12-28T08:33:28;97141.91;;;10.08;48.29
9139;BME280;4604;48.616;9.548;2023-12-28T08:35:55;97136.75;;;10.06;48.49
9139;BME280;4604;48.616;9.548;2023-12-28T08:38:21;97145.19;;;10.00;48.85
9139;BME280;4604;48.616;9.548;2023-12-28T08:40:49;97149.88;;;9.97;49.32
9139;BME280;4604;48.616;9.548;2023-12-28T08:43:16;97153.38;;;9.97;49.30
9139;BME280;4604;48.616;9.548;2023-12-28T08:45:43;97136.91;;;10.05;49.01
9139;BME280;4604;48.616;9.548;2023-12-28T08:48:09;97136.44;;;10.00;49.32
9139;BME280;4604;48.616;9.548;2023-12-28T08:50:36;97147.69;;;10.02;50.26
9139;BME280;4604;48.616;9.548;2023-12-28T08:53:02;97140.88;;;9.99;50.54
9139;BME280;4604;48.616;9.548;2023-12-28T08:55:29;97143.81;;;10.06;50.99
9139;BME280;4604;48.616;9.548;2023-12-28T08:57:57;97150.91;;;10.05;51.53
9139;BME280;4604;48.616;9.548;2023-12-28T09:00:24;97143.50;;;9.99;51.68
9139;BME280;4604;48.616;9.548;2023-12-28T09:02:50;97154.91;;;10.00;51.98
9139;BME280;4604;48.616;9.548;2023-12-28T09:05:17;97148.53;;;10.02;51.89
9139;BME280;4604;48.616;9.548;2023-12-28T09:07:43;97152.19;;;10.11;51.41
9139;BME280;4604;48.616;9.548;2023-12-28T09:10:10;97155.69;;;10.21;51.08
9139;BME280;4604;48.616;9.548;2023-12-28T09:12:37;97162.00;;;10.09;50.76
9139;BME280;4604;48.616;9.548;2023-12-28T09:15:06;97161.25;;;10.39;50.22
9139;BME280;4604;48.616;9.548;2023-12-28T09:17:33;97161.69;;;10.23;50.80
9139;BME280;4604;48.616;9.548;2023-12-28T09:20:00;97168.00;;;10.32;50.80
9139;BME280;4604;48.616;9.548;2023-12-28T09:22:27;97160.47;;;10.06;51.32
9139;BME280;4604;48.616;9.548;2023-12-28T09:24:53;97157.28;;;10.03;52.04
9139;BME280;4604;48.616;9.548;2023-12-28T09:27:20;97163.75;;;9.99;52.24
9139;BME280;4604;48.616;9.548;2023-12-28T09:29:46;97160.88;;;10.02;52.22
9139;BME280;4604;48.616;9.548;2023-12-28T09:32:14;97156.44;;;10.02;52.24
9139;BME280;4604;48.616;9.548;2023-12-28T09:34:41;97155.63;;;10.12;52.18
9139;BME280;4604;48.616;9.548;2023-12-28T09:37:08;97157.66;;;10.19;50.81
9139;BME280;4604;48.616;9.548;2023-12-28T09:39:35;97159.63;;;10.27;50.34
9139;BME280;4604;48.616;9.548;2023-12-28T09:42:06;97162.03;;;10.30;50.20
9139;BME280;4604;48.616;9.548;2023-12-28T09:44:34;97161.69;;;10.23;50.72
9139;BME280;4604;48.616;9.548;2023-12-28T09:47:04;97160.03;;;10.22;51.12
9139;BME280;4604;48.616;9.548;2023-12-28T09:49:35;97157.63;;;10.40;53.81
9139;BME280;4604;48.616;9.548;2023-12-28T09:52:02;97164.41;;;10.33;53.14
9139;BME280;4604;48.616;9.548;2023-12-28T09:54:29;97164.66;;;10.30;53.14
9139;BME280;4604;48.616;9.548;2023-12-28T09:56:56;97168.38;;;10.27;52.15
9139;BME280;4604;48.616;9.548;2023-12-28T09:59:24;97163.00;;;10.29;51.96
9139;BME280;4604;48.616;9.548;2023-12-28T10:01:50;97158.47;;;10.41;52.05
9139;BME280;4604;48.616;9.548;2023-12-28T10:04:17;97149.44;;;10.43;51.99
9139;BME280;4604;48.616;9.548;2023-12-28T10:06:45;97160.16;;;10.42;51.65
9139;BME280;4604;48.616;9.548;2023-12-28T10:09:11;97156.84;;;10.49;51.29
9139;BME280;4604;48.616;9.548;2023-12-28T10:11:38;97148.81;;;10.51;50.98
9139;BME280;4604;48.616;9.548;2023-12-28T10:14:06;97153.63;;;10.46;51.44
9139;BME280;4604;48.616;9.548;2023-12-28T10:16:33;97146.84;;;10.53;51.10
9139;BME280;4604;48.616;9.548;2023-12-28T10:18:59;97165.59;;;10.50;51.13
9139;BME280;4604;48.616;9.548;2023-12-28T10:21:26;97154.53;;;10.66;50.82
9139;BME280;4604;48.616;9.548;2023-12-28T10:23:55;97170.91;;;10.60;50.90
9139;BME280;4604;48.616;9.548;2023-12-28T10:26:21;97157.16;;;10.56;51.27
9139;BME280;4604;48.616;9.548;2023-12-28T10:28:47;97164.28;;;10.75;50.85
9139;BME280;4604;48.616;9.548;2023-12-28T10:31:15;97159.66;;;10.67;50.52
9139;BME280;4604;48.616;9.548;2023-12-28T10:33:42;97176.31;;;10.58;50.74
9139;BME280;4604;48.616;9.548;2023-12-28T10:36:11;97171.03;;;10.58;50.94
9139;BME280;4604;48.616;9.548;2023-12-28T10:38:40;97163.69;;;10.62;51.03
9139;BME280;4604;48.616;9.548;2023-12-28T10:41:10;97167.38;;;10.80;51.10
9139;BME280;4604;48.616;9.548;2023-12-28T10:43:45;97158.78;;;10.88;50.85
9139;BME280;4604;48.616;9.548;2023-12-28T10:46:19;97156.56;;;10.93;50.60
9139;BME280;4604;48.616;9.548;2023-12-28T10:48:50;97154.00;;;10.82;50.76
9139;BME280;4604;48.616;9.548;2023-12-28T10:51:21;97143.06;;;10.96;51.21
9139;BME280;4604;48.616;9.548;2023-12-28T10:53:59;97123.91;;;11.13;51.35
9139;BME280;4604;48.616;9.548;2023-12-28T10:56:35;97128.25;;;11.24;52.26
9139;BME280;4604;48.616;9.548;2023-12-28T10:59:10;97142.28;;;11.34;53.05
9139;BME280;4604;48.616;9.548;2023-12-28T11:01:42;97126.72;;;11.41;53.93
9139;BME280;4604;48.616;9.548;2023-12-28T11:04:16;97128.91;;;11.55;56.51
9139;BME280;4604;48.616;9.548;2023-12-28T11:06:46;97131.41;;;11.67;56.07
9139;BME280;4604;48.616;9.548;2023-12-28T11:09:14;97136.16;;;11.73;56.11
9139;BME280;4604;48.616;9.548;2023-12-28T11:11:43;97139.06;;;11.70;53.70
9139;BME280;4604;48.616;9.548;2023-12-28T11:14:11;97111.50;;;11.72;55.52
9139;BME280;4604;48.616;9.548;2023-12-28T11:16:40;97114.44;;;11.89;57.08
9139;BME280;4604;48.616;9.548;2023-12-28T11:19:08;97115.84;;;11.93;57.98
9139;BME280;4604;48.616;9.548;2023-12-28T11:21:36;97107.59;;;11.86;57.57
9139;BME280;4604;48.616;9.548;2023-12-28T11:24:04;97109.84;;;11.91;58.42
9139;BME280;4604;48.616;9.548;2023-12-28T11:26:31;97103.84;;;11.89;60.53
9139;BME280;4604;48.616;9.548;2023-12-28T11:29:04;97116.66;;;11.84;60.93
9139;BME280;4604;48.616;9.548;2023-12-28T11:31:32;97101.78;;;11.83;61.82
9139;BME280;4604;48.616;9.548;2023-12-28T11:34:00;97106.59;;;12.07;61.10
9139;BME280;4604;48.616;9.548;2023-12-28T11:36:33;97109.06;;;12.18;59.86
9139;BME280;4604;48.616;9.548;2023-12-28T11:39:02;97108.69;;;12.03;59.94
9139;BME280;4604;48.616;9.548;2023-12-28T11:41:31;97109.13;;;11.98;60.73
9139;BME280;4604;48.616;9.548;2023-12-28T11:44:03;97118.13;;;12.15;60.97
9139;BME280;4604;48.616;9.548;2023-12-28T11:46:30;97103.91;;;12.16;60.60
9139;BME280;4604;48.616;9.548;2023-12-28T11:49:03;97112.97;;;12.14;60.75
9139;BME280;4604;48.616;9.548;2023-12-28T11:51:30;97100.78;;;11.93;60.79
9139;BME280;4604;48.616;9.548;2023-12-28T11:53:57;97113.59;;;11.98;61.40
9139;BME280;4604;48.616;9.548;2023-12-28T11:56:28;97096.06;;;11.87;61.09
9139;BME280;4604;48.616;9.548;2023-12-28T11:58:55;97097.84;;;11.96;61.24
9139;BME280;4604;48.616;9.548;2023-12-28T12:01:23;97088.81;;;11.89;61.20
9139;BME280;4604;48.616;9.548;2023-12-28T12:03:49;97063.63;;;11.85;60.58
9139;BME280;4604;48.616;9.548;2023-12-28T12:06:16;97080.31;;;11.95;60.41
9139;BME280;4604;48.616;9.548;2023-12-28T12:08:45;97077.50;;;11.97;60.67
9139;BME280;4604;48.616;9.548;2023-12-28T12:11:12;97080.28;;;12.05;60.78
9139;BME280;4604;48.616;9.548;2023-12-28T12:13:39;97080.84;;;11.99;61.41
9139;BME280;4604;48.616;9.548;2023-12-28T12:16:08;97084.50;;;11.98;61.53
9139;BME280;4604;48.616;9.548;2023-12-28T12:18:36;97086.72;;;12.03;61.46
9139;BME280;4604;48.616;9.548;2023-12-28T12:21:03;97078.06;;;12.01;61.65
9139;BME280;4604;48.616;9.548;2023-12-28T12:23:31;97080.03;;;11.98;61.90
9139;BME280;4604;48.616;9.548;2023-12-28T12:25:58;97074.59;;;12.00;62.02
9139;BME280;4604;48.616;9.548;2023-12-28T12:28:24;97069.00;;;12.03;62.09
9139;BME280;4604;48.616;9.548;2023-12-28T12:30:53;97053.03;;;11.95;62.65
9139;BME280;4604;48.616;9.548;2023-12-28T12:33:21;97059.69;;;11.99;62.39
9139;BME280;4604;48.616;9.548;2023-12-28T12:35:49;97062.91;;;12.03;62.58
9139;BME280;4604;48.616;9.548;2023-12-28T12:38:16;97050.09;;;11.98;62.93
9139;BME280;4604;48.616;9.548;2023-12-28T12:40:43;97054.69;;;11.96;62.95
9139;BME280;4604;48.616;9.548;2023-12-28T12:43:10;97064.16;;;11.98;63.11
9139;BME280;4604;48.616;9.548;2023-12-28T12:45:37;97068.84;;;12.14;63.03
9139;BME280;4604;48.616;9.548;2023-12-28T12:48:05;97019.09;;;11.81;63.21
9139;BME280;4604;48.616;9.548;2023-12-28T12:50:39;97057.19;;;12.07;63.52
9139;BME280;4604;48.616;9.548;2023-12-28T12:53:08;97062.47;;;12.07;63.62
9139;BME280;4604;48.616;9.548;2023-12-28T12:55:36;97058.34;;;11.95;64.29
9139;BME280;4604;48.616;9.548;2023-12-28T12:58:04;97058.06;;;11.78;64.76
9139;BME280;4604;48.616;9.548;2023-12-28T13:00:31;97044.88;;;11.69;65.30
9139;BME280;4604;48.616;9.548;2023-12-28T13:02:59;97055.28;;;11.70;65.79
9139;BME280;4604;48.616;9.548;2023-12-28T13:05:25;97026.13;;;11.43;65.95
9139;BME280;4604;48.616;9.548;2023-12-28T13:07:54;97034.50;;;11.38;66.99
9139;BME280;4604;48.616;9.548;2023-12-28T13:10:22;97028.66;;;11.34;67.42
9139;BME280;4604;48.616;9.548;2023-12-28T13:12:54;97053.66;;;11.50;67.29
9139;BME280;4604;48.616;9.548;2023-12-28T13:15:21;97064.94;;;11.52;68.03
9139;BME280;4604;48.616;9.548;2023-12-28T13:17:47;97060.59;;;11.51;68.89
9139;BME280;4604;48.616;9.548;2023-12-28T13:20:14;97056.88;;;11.53;68.60
9139;BME280;4604;48.616;9.548;2023-12-28T13:22:40;97058.13;;;11.49;68.90
9139;BME280;4604;48.616;9.548;2023-12-28T13:25:07;97070.38;;;11.41;69.95